Buffalo, WY (82834)

9:04 AM MST on February 11, 2016 (GMT -0700)
Buffalo | | Change Station
CLOSE
Current Station
Personal Weather Station
Location: Buffalo, WY
Elevation: 4708 ft
Nearby Weather Stations

Elev 4708 ft 44.34 °N, 106.70 °W | Updated 12 seconds ago

Clear
Clear
48.2 °F
Feels Like 45 °F
N
7.2
Wind Variable Wind from NNW
Gusts 9.8 mph

Today
High -- | Low -- °F
--% Chance of Precip.
Yesterday
High -- | Low -- °F
Precip. -- in
Pressure 30.08 in
Visibility 10.0 miles
Clouds Clear
Windchill 45 °F
Dew Point 25 °F
Humidity 40%
Rainfall 0.00 in
Snow Depth Not available.
7:12 AM 5:29 PM
Waxing Crescent, 12% visible
METAR KBYG 111553Z AUTO 34016G24KT 10SM CLR 08/M04 A3011 RMK AO2 PK WND 34028/1523 SLP186 T00831039
Pressure 30.08 in
Visibility 10.0 miles
Clouds Clear
Windchill 45 °F
Dew Point 25 °F
Humidity 40%
Rainfall 0.00 in
Snow Depth Not available.
7:12 AM 5:29 PM
Waxing Crescent, 12% visible
METAR KBYG 111553Z AUTO 34016G24KT 10SM CLR 08/M04 A3011 RMK AO2 PK WND 34028/1523 SLP186 T00831039

10-Day Weather Forecast

Almanac

Astronomy

Feb. 11, 2016 Rise Set
Actual Time
Civil Twilight
Nautical Twilight
Astronomical Twilight
Moon
Length of Visible Light
Length of Day
Tomorrow will be .
, % of the Moon is Illuminated

Today's Extremes

State Highs State Lows

Community

WunderPhotos

Upload Photos

1,892,083 photos uploaded!

WunderBlog® & News

Nearby

Air Quality

  Air Quality AQ Index Pollutant
Not available.

Snow Depth

Station Depth Elevation

Earthquake Activity

City Distance Mag. Time & Date
Minimum magnitude displayed is 2.5.

Coastal Water Temperatures

Place Temperature

Stations

Nearby Weather Stations

Station Location Temp. Windchill Dew Point Humidity Wind Precip. Elev Updated Type
                   

Watches & Warnings

There are currently no watches in effect.